Eye Of The Wind — GWAK — position and weather

sailwx.info

Track history (hours):
 
Tides and Currents Weather Stations Pressure Air Temp Water Temp Dewpoint Dewpoint Depression Visibility Wind Speed Wind Dir Waves Ship Positions

Eye Of The Wind

Last reported at 2020-Jan-04 19:28 UTC. Time now 2020-Jan-20 23:02 UTC.
Position N 17°51' W 062°57'.
Warning: this ship's position is 16 days out of date.

Length 33 m; draft 2.8 m.

Type: Sailing vessel. MMSI: 233789000.

Date/timePositionNaut miles runAvg speedWind from/ knotsBaromVisibWave heightAir tempDewpointWater temp
2020-Jan-04 19:28N 17°51' W 062°57'9 3.4
2020-Jan-04 16:53N 17°56' W 063°05'5 5.5
2020-Jan-04 15:57N 17°60' W 063°08'2 4.4
2020-Jan-04 15:29N 18°01' W 063°10'3 5.2
2020-Jan-04 15:00N 18°04' W 063°10'5 4.4
2020-Jan-04 13:58N 18°05' W 063°05'0 0.0
2020-Jan-04 06:19N 18°05' W 063°05'0 0.0
2020-Jan-04 04:55N 18°05' W 063°05'0 0.0
2020-Jan-04 04:22N 18°05' W 063°05'0 0.0
2020-Jan-04 02:58N 18°05' W 063°05'0 0.0
2020-Jan-03 20:58N 18°05' W 063°05'0 0.0
2020-Jan-03 18:52N 18°05' W 063°05'0 0.0
2020-Jan-03 11:41N 18°05' W 063°05'0 0.0
2020-Jan-03 08:59N 18°05' W 063°05'0 0.0
2020-Jan-03 07:19N 18°05' W 063°05'0 0.0
2020-Jan-03 06:53N 18°05' W 063°05'0 0.0
2020-Jan-03 05:24N 18°05' W 063°05'0 0.0
2020-Jan-03 02:26N 18°05' W 063°05'0 0.0
2020-Jan-02 23:45N 18°05' W 063°05'0 0.0
2020-Jan-02 21:14N 18°05' W 063°05'6 1.1
2020-Jan-02 16:00N 18°06' W 063°11'4 1.9
2020-Jan-02 14:06N 18°03' W 063°09'1 2.9
2020-Jan-02 13:55N 18°03' W 063°09'2 0.4
2020-Jan-02 07:07N 18°02' W 063°06'0 0.0
2020-Jan-02 05:22N 18°02' W 063°06'10 2.0
2020-Jan-02 00:18N 18°09' W 063°14'  
Track history (hours):
 
Tides and Currents Weather Stations Pressure Air Temp Water Temp Dewpoint Dewpoint Depression Visibility Wind Speed Wind Dir Waves Ship Positions

Eye Of The Wind

Last reported at 2020-Jan-04 19:28 UTC. Time now 2020-Jan-20 23:02 UTC.
Position N 17°51' W 062°57'.
Warning: this ship's position is 16 days out of date.

Length 33 m; draft 2.8 m.

Type: Sailing vessel. MMSI: 233789000.

Date/timePositionNaut miles runAvg speedWind from/ knotsBaromVisibWave heightAir tempDewpointWater temp
2020-Jan-04 19:28N 17°51' W 062°57'9 3.4
2020-Jan-04 16:53N 17°56' W 063°05'5 5.5
2020-Jan-04 15:57N 17°60' W 063°08'2 4.4
2020-Jan-04 15:29N 18°01' W 063°10'3 5.2
2020-Jan-04 15:00N 18°04' W 063°10'5 4.4
2020-Jan-04 13:58N 18°05' W 063°05'0 0.0
2020-Jan-04 06:19N 18°05' W 063°05'0 0.0
2020-Jan-04 04:55N 18°05' W 063°05'0 0.0
2020-Jan-04 04:22N 18°05' W 063°05'0 0.0
2020-Jan-04 02:58N 18°05' W 063°05'0 0.0
2020-Jan-03 20:58N 18°05' W 063°05'0 0.0
2020-Jan-03 18:52N 18°05' W 063°05'0 0.0
2020-Jan-03 11:41N 18°05' W 063°05'0 0.0
2020-Jan-03 08:59N 18°05' W 063°05'0 0.0
2020-Jan-03 07:19N 18°05' W 063°05'0 0.0
2020-Jan-03 06:53N 18°05' W 063°05'0 0.0
2020-Jan-03 05:24N 18°05' W 063°05'0 0.0
2020-Jan-03 02:26N 18°05' W 063°05'0 0.0
2020-Jan-02 23:45N 18°05' W 063°05'0 0.0
2020-Jan-02 21:14N 18°05' W 063°05'6 1.1
2020-Jan-02 16:00N 18°06' W 063°11'4 1.9
2020-Jan-02 14:06N 18°03' W 063°09'1 2.9
2020-Jan-02 13:55N 18°03' W 063°09'2 0.4
2020-Jan-02 07:07N 18°02' W 063°06'0 0.0
2020-Jan-02 05:22N 18°02' W 063°06'10 2.0
2020-Jan-02 00:18N 18°09' W 063°14'  

Dump ship's entire track history